Time;durP1;ratioP1;P1;durP2;ratioP2;P2;SDS_P1;SDS_P2;PMS_P1;PMS_P2;Temp;Humidity;BMP_temperature;BMP_pressure;BME280_temperature;BME280_humidity;BME280_pressure;Samples;Min_cycle;Max_cycle;Signal;HPM_P1;HPM_P2
2023/06/16 00:00:48;;;;;;;4.65;3.20;;;17.00;88.80;;;15.98;73.75;99776.41;10443712;27;96663;-85
2023/06/16 00:05:51;;;;;;;5.85;3.67;;;17.00;89.00;;;16.00;74.88;99773.50;10444401;27;98377;-85
2023/06/16 00:10:55;;;;;;;7.30;3.40;;;17.00;89.60;;;15.98;76.02;99763.00;10423834;27;97465;-84
2023/06/16 00:15:59;;;;;;;4.13;3.08;;;17.00;90.30;;;16.00;75.97;99752.91;10425362;27;96521;-85
2023/06/16 00:21:03;;;;;;;35.58;7.90;;;17.10;90.30;;;16.06;75.71;99760.06;10428127;27;96483;-84
2023/06/16 00:26:07;;;;;;;48.88;5.28;;;17.20;90.40;;;16.11;76.23;99755.94;10452711;27;96512;-85
2023/06/16 00:31:11;;;;;;;4.80;2.97;;;17.20;90.60;;;16.04;76.98;99754.13;10433604;27;96485;-84
2023/06/16 00:36:14;;;;;;;4.13;3.40;;;17.20;90.80;;;16.04;76.77;99751.44;10437092;27;96561;-85
2023/06/16 00:41:18;;;;;;;222.15;28.10;;;17.10;91.10;;;16.02;77.65;99753.53;10424882;27;97155;-85
2023/06/16 00:46:32;;;;;;;3.70;2.70;;;17.10;91.50;;;15.99;78.43;99753.94;10440319;27;97253;-84
2023/06/16 00:51:36;;;;;;;167.63;13.65;;;17.00;91.80;;;15.93;78.51;99759.31;10440596;27;97771;-85
2023/06/16 00:56:41;;;;;;;16.45;4.15;;;17.00;92.00;;;15.90;78.99;99760.59;10439265;27;96588;-85
2023/06/16 01:01:48;;;;;;;5.68;3.40;;;16.90;92.30;;;15.87;79.42;99757.50;10421679;27;97834;-85
2023/06/16 01:07:11;;;;;;;3.60;2.97;;;16.90;92.70;;;15.83;80.08;99749.06;10422923;27;98786;-84
2023/06/16 01:12:33;;;;;;;3.90;3.13;;;16.90;92.90;;;15.78;80.65;99741.69;10416527;27;98055;-85
2023/06/16 01:17:44;;;;;;;6.22;3.53;;;16.80;93.30;;;15.73;81.44;99738.81;10438708;27;96559;-85
2023/06/16 01:23:47;;;;;;;6.20;3.53;;;16.80;93.60;;;15.65;82.42;99736.38;10410836;27;96554;-85
2023/06/16 01:28:51;;;;;;;;;;;16.70;94.10;;;15.59;82.79;99741.69;10441198;27;96552;-84
2023/06/16 01:33:56;;;;;;;4.35;3.22;;;16.60;94.90;;;15.56;82.66;99745.63;10423534;27;96794;-84
2023/06/16 01:39:01;;;;;;;6.85;4.28;;;16.60;94.40;;;15.52;83.32;99745.22;10424793;27;96515;-84
2023/06/16 01:44:05;;;;;;;5.95;3.67;;;16.60;94.90;;;15.49;83.37;99740.31;10439851;27;96929;-84
2023/06/16 01:49:09;;;;;;;5.88;3.88;;;16.50;95.10;;;15.49;84.11;99766.25;10438354;27;96698;-84
2023/06/16 01:54:13;;;;;;;5.00;3.83;;;16.50;95.50;;;15.43;84.82;99743.00;10441680;27;96542;-84
2023/06/16 01:59:17;;;;;;;5.00;4.18;;;16.50;95.90;;;15.42;86.05;99749.41;10416562;27;96654;-85
2023/06/16 02:04:24;;;;;;;6.32;4.20;;;16.50;96.30;;;15.32;86.32;99751.69;10445800;27;96383;-84
2023/06/16 02:09:31;;;;;;;4.03;3.45;;;16.50;96.70;;;15.23;87.07;99741.22;10463756;27;96764;-84
2023/06/16 02:14:35;;;;;;;4.50;3.55;;;16.40;97.00;;;15.22;87.49;99744.06;10464413;27;97778;-84
2023/06/16 02:19:40;;;;;;;14.70;4.10;;;16.30;97.40;;;15.16;87.71;99729.66;10397714;28;96478;-84
2023/06/16 02:24:44;;;;;;;5.05;4.00;;;16.40;97.80;;;15.18;88.58;99726.81;10434323;27;96744;-84
2023/06/16 02:29:48;;;;;;;5.70;3.97;;;16.30;98.30;;;15.20;88.14;99724.72;10435404;27;97127;-85
2023/06/16 02:34:52;;;;;;;4.55;3.70;;;16.30;98.80;;;15.24;88.24;99724.13;10419221;27;96585;-84
2023/06/16 02:39:56;;;;;;;5.18;4.00;;;16.30;98.90;;;15.27;88.32;99730.88;10440505;27;96572;-84
2023/06/16 02:45:00;;;;;;;5.13;3.45;;;16.30;99.20;;;15.26;89.00;99722.03;10421823;27;97670;-84
2023/06/16 02:50:05;;;;;;;6.60;4.00;;;16.30;99.60;;;15.31;89.07;99723.28;10398030;28;96659;-84
2023/06/16 02:55:09;;;;;;;5.18;3.80;;;16.40;99.90;;;15.31;88.90;99717.91;10434710;27;98472;-84
2023/06/16 03:00:13;;;;;;;5.15;4.13;;;16.40;99.90;;;15.32;88.75;99714.19;10440379;27;96927;-84
2023/06/16 03:05:18;;;;;;;6.35;4.35;;;16.40;99.90;;;15.33;88.73;99719.34;10444036;27;96642;-84
2023/06/16 03:10:21;;;;;;;22.10;4.35;;;16.40;99.90;;;15.32;88.22;99724.91;10405313;28;96365;-84
2023/06/16 03:15:27;;;;;;;7.05;4.28;;;16.40;99.90;;;15.34;88.56;99729.00;10424558;27;98052;-84
2023/06/16 03:20:31;;;;;;;6.82;4.60;;;16.40;99.90;;;15.34;88.13;99728.19;10435827;27;96520;-84
2023/06/16 03:25:36;;;;;;;7.00;4.70;;;16.40;99.90;;;15.33;88.71;99734.59;10445656;27;96711;-85
2023/06/16 03:30:40;;;;;;;8.70;4.65;;;16.40;99.90;;;15.34;88.64;99731.69;10426307;27;98325;-84
2023/06/16 03:35:44;;;;;;;5.90;3.75;;;16.40;99.90;;;15.32;88.48;99735.63;10411070;27;96638;-84
2023/06/16 03:40:48;;;;;;;6.47;4.45;;;16.40;99.90;;;15.32;88.87;99730.25;10425105;27;98522;-84
2023/06/16 03:45:52;;;;;;;7.35;3.85;;;16.30;99.90;;;15.38;89.46;99734.78;10432191;27;97680;-84
2023/06/16 03:50:56;;;;;;;5.78;4.00;;;16.40;99.90;;;15.42;90.12;99731.47;10459192;27;97217;-84
2023/06/16 03:56:01;;;;;;;5.95;3.90;;;16.50;99.90;;;15.47;90.10;99730.81;10444552;27;96429;-84
2023/06/16 04:01:06;;;;;;;9.05;5.00;;;16.50;99.90;;;15.51;90.00;99727.53;10432208;27;96777;-84
2023/06/16 04:06:10;;;;;;;6.03;3.78;;;16.60;99.90;;;15.57;90.11;99727.72;10426007;27;96530;-84
2023/06/16 04:11:15;;;;;;;8.55;4.63;;;16.60;99.90;;;15.61;90.55;99724.41;10439076;27;97104;-85
2023/06/16 04:16:19;;;;;;;8.15;4.00;;;16.70;99.90;;;15.67;90.50;99712.88;10425483;27;97690;-84
2023/06/16 04:21:23;;;;;;;5.07;3.80;;;16.80;99.90;;;15.72;90.33;99712.25;10411792;27;96564;-85
2023/06/16 04:26:28;;;;;;;7.88;4.22;;;16.80;99.90;;;15.79;89.54;99713.84;10421232;27;96641;-84
2023/06/16 04:31:35;;;;;;;6.72;5.68;;;16.90;99.90;;;15.92;89.47;99710.28;10424642;27;99007;-84
2023/06/16 04:36:44;;;;;;;7.13;3.40;;;17.00;99.90;;;16.03;89.88;99708.78;10409813;27;96830;-84
2023/06/16 04:41:48;;;;;;;5.75;3.72;;;17.10;99.90;;;16.17;88.07;99713.00;10393472;27;96855;-85
2023/06/16 04:46:52;;;;;;;4.22;3.15;;;17.20;99.90;;;16.23;85.58;99690.69;10417430;27;100004;-85
2023/06/16 04:51:56;;;;;;;5.38;4.15;;;17.30;99.90;;;16.44;86.04;99710.16;10423657;27;96556;-84
2023/06/16 04:57:00;;;;;;;7.65;5.05;;;17.50;99.90;;;16.63;86.16;99713.72;10412156;27;96592;-85
2023/06/16 05:02:04;;;;;;;6.25;4.30;;;17.70;99.90;;;16.76;85.48;99717.13;10424922;27;97004;-85
2023/06/16 05:07:11;;;;;;;13.52;6.32;;;17.80;99.90;;;16.88;85.11;99717.25;10449294;27;97677;-84
2023/06/16 05:12:16;;;;;;;6.28;3.85;;;18.00;99.90;;;16.97;85.73;99724.00;10473494;27;97673;-86
2023/06/16 05:17:20;;;;;;;7.70;3.75;;;18.00;99.90;;;17.07;85.17;99718.91;10442796;27;97626;-86
2023/06/16 05:22:24;;;;;;;7.63;3.92;;;18.20;99.90;;;17.17;84.70;99718.41;10428088;27;96614;-85
2023/06/16 05:27:28;;;;;;;4.65;3.38;;;18.30;99.90;;;17.25;83.29;99730.72;10417367;27;96650;-85
2023/06/16 05:32:32;;;;;;;6.68;3.75;;;18.30;99.90;;;17.26;83.25;99721.63;10419130;27;96579;-85
2023/06/16 05:37:35;;;;;;;8.07;3.47;;;18.30;99.90;;;17.25;82.82;99720.78;10407793;27;97774;-85
2023/06/16 05:42:39;;;;;;;6.00;3.90;;;18.30;99.90;;;17.28;83.42;99717.69;10433333;27;96610;-85
2023/06/16 05:47:44;;;;;;;4.72;3.80;;;18.30;99.90;;;17.35;84.51;99726.47;10416415;27;97049;-85
2023/06/16 05:52:47;;;;;;;10.50;4.18;;;18.30;99.90;;;17.46;84.11;99721.41;10420928;27;96986;-85
2023/06/16 05:57:51;;;;;;;7.63;4.38;;;18.40;99.90;;;17.58;84.41;99719.63;10443107;27;96416;-84
2023/06/16 06:02:55;;;;;;;5.03;3.97;;;18.60;99.90;;;17.71;83.64;99727.50;10450311;27;96736;-85
2023/06/16 06:07:59;;;;;;;3.97;3.20;;;18.70;99.90;;;17.88;83.71;99717.81;10425658;27;96828;-85
2023/06/16 06:13:06;;;;;;;6.25;3.75;;;18.90;99.90;;;18.09;81.71;99716.47;10423235;27;96529;-85
2023/06/16 06:18:10;;;;;;;5.93;3.15;;;19.10;99.90;;;18.34;81.67;99724.38;10433377;27;97207;-84
2023/06/16 06:23:13;;;;;;;6.20;4.05;;;19.40;99.90;;;18.62;80.84;99728.31;10441073;27;98360;-84
2023/06/16 06:28:17;;;;;;;11.32;5.20;;;19.70;99.90;;;18.84;80.50;99734.00;10415490;27;96580;-85
2023/06/16 06:33:20;;;;;;;9.73;4.60;;;19.90;99.90;;;19.00;80.49;99727.91;10443229;27;96499;-85
2023/06/16 06:38:24;;;;;;;7.93;4.22;;;20.10;99.90;;;19.13;78.54;99726.84;10432692;27;97531;-85
2023/06/16 06:43:28;;;;;;;7.95;4.35;;;20.20;99.90;;;19.31;78.61;99733.97;10430167;27;96685;-85
2023/06/16 06:48:32;;;;;;;4.68;3.55;;;20.30;99.90;;;19.45;78.06;99730.78;10429535;27;96614;-85
2023/06/16 06:53:35;;;;;;;7.90;4.20;;;20.50;99.90;;;19.68;78.20;99729.97;10424836;27;97175;-85
2023/06/16 06:58:39;;;;;;;6.53;4.00;;;20.70;99.90;;;19.89;75.11;99731.16;10426885;27;96563;-85
2023/06/16 07:03:42;;;;;;;1999.90;999.90;;;20.90;99.40;;;20.09;74.55;99735.31;10422300;27;96939;-85
2023/06/16 07:08:46;;;;;;;1999.90;999.90;;;21.10;99.30;;;20.25;72.98;99734.53;10441217;27;97116;-85
2023/06/16 07:13:50;;;;;;;23.00;21.42;;;21.30;98.80;;;20.38;73.17;99738.81;10442838;27;96602;-85
2023/06/16 07:18:54;;;;;;;1999.90;999.90;;;21.40;98.60;;;20.53;69.61;99729.13;10433088;27;97237;-86
2023/06/16 07:23:58;;;;;;;4.82;3.40;;;21.60;97.60;;;20.69;69.67;99734.75;10419042;27;96994;-85
2023/06/16 07:29:02;;;;;;;4.68;3.13;;;21.70;97.40;;;20.88;68.33;99724.56;10451091;27;97281;-86
2023/06/16 07:34:09;;;;;;;4.90;3.35;;;21.90;96.80;;;21.00;67.02;99723.41;10427165;27;96646;-85
2023/06/16 07:39:12;;;;;;;7.88;3.53;;;22.00;96.10;;;21.14;65.97;99726.56;10418506;27;98054;-85
2023/06/16 07:44:16;;;;;;;4.60;2.90;;;22.20;95.60;;;21.28;64.41;99733.22;10442061;27;96583;-85
2023/06/16 07:49:20;;;;;;;5.68;3.30;;;22.30;95.00;;;21.43;64.14;99729.97;10429934;27;97852;-86
2023/06/16 09:17:12;;;;;;;4.45;3.50;;;22.40;89.80;;;22.60;55.59;99733.94;10474201;27;96465;-91
2023/06/16 09:22:19;;;;;;;3.97;3.33;;;23.30;89.40;;;22.78;53.32;99721.09;10431198;27;96925;-92
2023/06/16 09:27:45;;;;;;;4.13;3.25;;;23.60;87.10;;;23.04;53.74;99724.84;10436054;27;99127;-91
2023/06/16 09:32:52;;;;;;;3.55;3.03;;;23.90;86.50;;;23.22;51.18;99722.50;10400915;27;98075;-92
2023/06/16 09:38:00;;;;;;;3.88;3.47;;;24.20;84.50;;;23.38;49.57;99719.88;10412406;27;97066;-89
2023/06/16 09:43:09;;;;;;;3.95;2.97;;;24.40;82.50;;;23.54;49.04;99716.16;10395392;28;96770;-91
2023/06/16 09:48:13;;;;;;;8.57;3.28;;;24.50;81.20;;;23.71;48.65;99711.38;10416044;27;96801;-89
2023/06/16 09:53:19;;;;;;;4.65;3.65;;;24.80;79.40;;;23.92;46.21;99709.53;10421488;27;96628;-91
2023/06/16 09:58:23;;;;;;;37.42;4.80;;;25.00;77.10;;;24.11;47.79;99701.72;10408240;27;98440;-93
2023/06/16 10:03:50;;;;;;;5.00;3.40;;;25.20;77.20;;;24.30;46.08;99691.16;10409796;27;96568;-91
2023/06/16 10:08:57;;;;;;;4.97;3.00;;;25.40;75.80;;;24.52;45.94;99688.19;10382183;28;98230;-93
2023/06/16 10:14:04;;;;;;;4.13;3.10;;;25.60;74.90;;;24.55;45.74;99690.38;10425974;27;96677;-94
2023/06/16 10:19:08;;;;;;;5.13;3.40;;;25.70;74.10;;;24.63;45.08;99683.56;10401034;28;97588;-91
2023/06/16 10:24:15;;;;;;;6.53;2.92;;;25.70;73.30;;;24.54;44.03;99680.59;10427204;27;96461;-91
2023/06/16 10:29:20;;;;;;;3.67;2.67;;;25.70;71.80;;;24.27;44.83;99676.19;10405704;28;96843;-91
2023/06/16 10:34:24;;;;;;;3.55;3.08;;;25.40;71.00;;;24.07;45.40;99668.03;10394372;28;96621;-90
2023/06/16 10:39:28;;;;;;;3.05;2.70;;;25.10;71.60;;;23.98;45.66;99673.16;10389352;28;98275;-90
2023/06/16 10:44:32;;;;;;;3.90;3.10;;;25.00;72.30;;;23.99;45.50;99673.97;10391233;28;96727;-90
2023/06/16 10:49:52;;;;;;;3.88;2.85;;;25.00;72.20;;;24.00;45.08;99675.63;10393500;28;96596;-90
2023/06/16 10:54:58;;;;;;;9.07;3.15;;;25.00;70.90;;;23.95;45.25;99675.63;10389645;28;98092;-91
2023/06/16 11:00:16;;;;;;;3.58;3.03;;;24.90;71.20;;;23.97;47.14;99662.59;10387393;28;96671;-91
2023/06/16 11:05:22;;;;;;;4.20;3.00;;;24.90;72.50;;;24.10;46.06;99667.50;10326265;28;96610;-91
2023/06/16 11:10:27;;;;;;;3.65;2.90;;;25.10;72.00;;;24.07;47.14;99659.91;10387733;28;96662;-89
2023/06/16 11:15:30;;;;;;;4.13;3.15;;;25.00;72.70;;;24.14;47.43;99660.44;10385542;28;96746;-93
2023/06/16 11:20:35;;;;;;;5.78;3.70;;;25.10;73.50;;;24.34;48.78;99658.81;10377742;28;96741;-89
2023/06/16 11:25:39;;;;;;;4.25;3.17;;;25.20;74.30;;;24.48;47.37;99655.34;10381512;28;96691;-88
2023/06/16 11:30:43;;;;;;;4.28;3.58;;;25.40;73.30;;;24.73;46.54;99650.97;10379832;28;97381;-90
2023/06/16 11:35:47;;;;;;;5.20;3.45;;;25.60;73.00;;;25.07;47.05;99646.56;10385831;28;97045;-89
2023/06/16 11:40:53;;;;;;;7.18;3.25;;;25.90;72.90;;;25.30;44.32;99645.09;10407503;28;96661;-90
2023/06/16 11:46:10;;;;;;;4.93;3.85;;;26.30;70.40;;;25.52;46.02;99641.19;10400066;28;96676;-88
2023/06/16 11:51:14;;;;;;;7.20;3.15;;;26.40;71.30;;;25.75;45.17;99631.59;10386565;28;96620;-90
2023/06/16 11:56:18;;;;;;;5.20;3.15;;;26.70;70.90;;;25.94;44.09;99620.84;10388825;28;97521;-88
2023/06/16 12:01:25;;;;;;;8.70;3.70;;;27.00;69.80;;;25.93;44.63;99617.31;10408856;28;97068;-89
2023/06/16 12:06:30;;;;;;;3.80;3.05;;;27.00;69.50;;;25.98;45.22;99611.03;10394237;28;96632;-89
2023/06/16 12:11:35;;;;;;;5.05;3.42;;;27.10;70.00;;;25.89;44.66;99611.59;10368160;28;96510;-88
2023/06/16 12:16:38;;;;;;;9.32;3.67;;;27.00;69.00;;;25.85;45.99;99605.13;10354256;28;96828;-90
2023/06/16 12:21:42;;;;;;;14.15;4.13;;;26.90;70.40;;;25.93;45.13;99605.63;10391322;28;99038;-89
2023/06/16 12:26:46;;;;;;;7.18;3.45;;;27.00;69.50;;;25.86;44.38;99603.22;10391874;28;96459;-89
2023/06/16 12:31:51;;;;;;;14.38;3.95;;;27.10;68.70;;;25.90;45.30;99598.81;10389005;28;99142;-95
2023/06/16 12:36:58;;;;;;;13.38;3.60;;;27.20;69.10;;;25.98;43.69;99589.25;10379765;28;96651;-88
2023/06/16 12:42:05;;;;;;;4.05;3.60;;;27.50;67.10;;;26.01;42.38;99588.66;10392497;28;97391;-89
2023/06/16 12:47:10;;;;;;;4.00;3.38;;;27.60;66.30;;;26.09;42.81;99588.06;10393064;28;97622;-93
2023/06/16 12:52:15;;;;;;;3.60;3.13;;;27.60;65.30;;;26.01;42.57;99575.06;10405700;28;96779;-92
2023/06/16 12:57:23;;;;;;;3.78;3.38;;;27.40;65.70;;;26.02;42.99;99568.50;10375555;28;96638;-93
2023/06/16 13:02:26;;;;;;;4.93;3.28;;;27.30;66.10;;;26.03;44.32;99567.41;10349736;28;96792;-96
2023/06/16 13:07:30;;;;;;;3.60;3.10;;;27.20;66.80;;;25.84;43.14;99559.94;10368077;28;96726;-90
2023/06/16 13:12:33;;;;;;;4.78;3.53;;;26.90;66.60;;;25.93;42.92;99553.91;10390257;28;98498;-89
2023/06/16 13:17:37;;;;;;;8.68;3.83;;;26.90;66.10;;;25.83;44.19;99552.88;10408783;28;98208;-90
2023/06/16 13:22:41;;;;;;;6.03;4.18;;;26.90;66.80;;;25.88;45.23;99558.28;10405143;27;96554;-90
2023/06/16 13:27:45;;;;;;;5.88;3.75;;;26.90;68.10;;;26.10;44.07;99557.84;10386022;28;96600;-91
2023/06/16 13:32:49;;;;;;;3.88;3.35;;;27.10;67.50;;;26.50;43.50;99547.66;10377906;28;96678;-88
2023/06/16 13:37:53;;;;;;;4.10;3.33;;;27.50;67.40;;;26.90;43.19;99553.75;10366631;28;97449;-88
2023/06/16 13:42:59;;;;;;;3.78;3.40;;;27.80;66.40;;;27.28;41.89;99546.47;10366047;28;97389;-89
2023/06/16 13:48:04;;;;;;;4.88;3.60;;;28.20;65.50;;;27.45;39.63;99548.69;10374041;27;97179;-89
2023/06/16 13:53:10;;;;;;;4.80;4.10;;;28.40;64.00;;;27.30;40.64;99544.28;10383713;28;98185;-89
2023/06/16 13:58:14;;;;;;;5.28;4.15;;;28.30;63.80;;;26.91;40.02;99542.53;10378654;28;97976;-90
2023/06/16 14:03:19;;;;;;;6.82;4.40;;;27.80;63.40;;;26.87;40.14;99538.81;10390009;28;96779;-92
2023/06/16 14:08:23;;;;;;;4.88;4.30;;;27.70;62.20;;;27.03;40.74;99522.22;10368135;28;98102;-91
2023/06/16 14:13:27;;;;;;;4.72;4.25;;;27.80;62.70;;;27.10;40.40;99523.50;10354591;28;97495;-88
2023/06/16 14:18:30;;;;;;;11.95;4.75;;;27.90;62.30;;;27.14;40.19;99502.75;10358012;28;97562;-89
2023/06/16 14:23:35;;;;;;;8.00;4.05;;;28.00;62.00;;;27.01;38.05;99502.63;10365252;28;96944;-90
2023/06/16 14:28:38;;;;;;;5.47;3.88;;;28.00;60.30;;;26.83;37.20;99502.31;10380379;28;97351;-89
2023/06/16 14:33:42;;;;;;;4.20;3.75;;;27.80;58.70;;;26.85;37.40;99510.19;10367379;28;98225;-89
2023/06/16 14:38:46;;;;;;;4.93;3.60;;;27.80;58.40;;;26.86;36.65;99501.72;10377202;28;96576;-91
2023/06/16 14:43:50;;;;;;;6.47;3.40;;;27.80;57.90;;;26.65;36.63;99495.72;10387768;28;97083;-89
2023/06/16 14:48:53;;;;;;;5.68;3.78;;;27.60;57.80;;;26.80;38.15;99502.06;10352809;28;97350;-90
2023/06/16 14:53:57;;;;;;;5.85;3.70;;;27.70;58.70;;;27.18;38.50;99502.97;10374419;28;97478;-88
2023/06/16 14:59:01;;;;;;;7.32;3.65;;;28.20;59.00;;;27.48;37.25;99502.53;10367991;28;96969;-89
2023/06/16 15:04:05;;;;;;;70.28;52.17;;;28.50;57.90;;;27.67;36.15;99498.97;10378185;28;96680;-90
2023/06/16 15:09:08;;;;;;;37.17;9.77;;;28.80;57.10;;;27.50;35.97;99498.69;10400309;27;97675;-91
2023/06/16 15:14:12;;;;;;;4.22;3.65;;;28.60;56.70;;;27.12;35.15;99506.88;10370071;28;96862;-88
2023/06/16 15:19:16;;;;;;;29.42;4.78;;;28.20;55.90;;;26.58;38.89;99511.63;10372847;28;98443;-95
2023/06/16 15:24:20;;;;;;;5.88;3.67;;;27.80;58.10;;;26.05;40.82;99508.88;10346635;28;98497;-89
2023/06/16 15:29:24;;;;;;;3.92;3.53;;;27.30;60.20;;;25.52;42.18;99510.63;10379463;27;98789;-95
2023/06/16 15:34:29;;;;;;;5.38;3.30;;;26.70;61.30;;;25.05;41.92;99520.16;10345919;28;97596;-87
2023/06/16 15:39:34;;;;;;;92.13;8.98;;;26.30;61.10;;;24.91;42.77;99514.50;10363481;28;96774;-87
2023/06/16 15:44:37;;;;;;;32.40;4.45;;;26.00;62.60;;;25.18;42.43;99516.81;10368590;28;98010;-90
2023/06/16 15:49:41;;;;;;;5.90;3.50;;;26.40;63.60;;;25.12;43.92;99550.56;10343709;28;96499;-88
2023/06/16 15:54:45;;;;;;;5.13;2.97;;;26.70;62.70;;;24.31;46.71;99538.00;10403387;28;99214;-88
2023/06/16 15:59:49;;;;;;;10.65;2.88;;;25.90;64.70;;;23.98;48.78;99544.81;10378784;28;96604;-89
2023/06/16 16:04:53;;;;;;;4.28;3.05;;;25.40;66.60;;;24.05;49.40;99553.53;10373145;28;97275;-91
2023/06/16 16:09:57;;;;;;;148.68;37.28;;;25.30;67.80;;;23.96;49.42;99557.84;10396931;28;96509;-91
2023/06/16 16:15:01;;;;;;;4.75;2.97;;;25.20;67.90;;;23.69;50.18;99556.22;10399099;28;99920;-92
2023/06/16 16:20:06;;;;;;;4.15;3.28;;;24.90;68.60;;;23.33;51.57;99557.19;10355948;28;98648;-91
2023/06/16 16:25:10;;;;;;;4.88;3.67;;;24.60;69.60;;;23.17;52.24;99578.00;10339542;28;96701;-89
2023/06/16 16:30:15;;;;;;;6.15;3.28;;;24.30;70.80;;;23.09;53.34;99576.63;10368002;28;97085;-91
2023/06/16 16:35:18;;;;;;;5.97;3.42;;;24.20;72.00;;;22.92;53.25;99594.97;10343827;28;98331;-91
2023/06/16 16:40:22;;;;;;;5.00;3.63;;;24.10;72.30;;;22.69;52.01;99598.88;10333058;28;96668;-90
2023/06/16 16:45:26;;;;;;;5.63;3.10;;;23.80;71.40;;;22.44;53.96;99611.19;10357864;28;96491;-94
2023/06/16 16:50:30;;;;;;;8.18;3.22;;;23.50;72.60;;;22.15;56.01;99631.53;10345876;28;96644;-93
2023/06/16 16:55:33;;;;;;;5.97;3.10;;;23.30;74.00;;;22.08;56.99;99629.00;10407066;28;97490;-91
2023/06/16 17:00:40;;;;;;;4.05;2.83;;;23.30;75.00;;;22.20;57.20;99622.63;10388636;28;96612;-90
2023/06/16 17:05:44;;;;;;;4.65;3.15;;;23.40;75.40;;;22.28;56.88;99620.25;10385550;28;96784;-89
2023/06/16 17:10:48;;;;;;;5.53;2.90;;;23.60;75.20;;;22.43;56.97;99619.53;10388206;27;98195;-88
2023/06/16 17:15:52;;;;;;;3.13;2.38;;;23.80;75.40;;;22.64;56.06;99605.09;10359771;28;96665;-90
2023/06/16 17:20:56;;;;;;;3.65;2.53;;;23.90;75.00;;;22.77;55.56;99603.81;10394650;28;100489;-88
2023/06/16 17:26:01;;;;;;;5.63;2.55;;;24.20;74.60;;;22.77;55.10;99606.50;10365411;28;96679;-90
2023/06/16 17:31:04;;;;;;;4.22;3.30;;;24.10;74.00;;;22.56;54.79;99607.47;10386281;28;96616;-90
2023/06/16 17:36:08;;;;;;;6.22;3.33;;;23.90;73.70;;;22.32;56.48;99591.59;10380602;28;97490;-90
2023/06/16 17:41:17;;;;;;;5.93;2.75;;;23.70;74.50;;;22.18;56.86;99599.34;10418000;28;97368;-90
2023/06/16 17:46:23;;;;;;;5.03;3.47;;;23.50;75.00;;;22.04;56.93;99600.81;10332250;28;96531;-90
2023/06/16 17:51:27;;;;;;;20.55;13.57;;;23.30;75.30;;;21.80;57.99;99596.81;10406654;28;96611;-89
2023/06/16 17:56:33;;;;;;;4.72;4.13;;;23.00;76.20;;;21.60;58.44;99608.25;10391790;28;96640;-89
2023/06/16 18:01:39;;;;;;;6.32;4.68;;;22.70;76.80;;;21.25;60.09;99606.75;10361863;28;100231;-90
2023/06/16 18:06:43;;;;;;;4.78;3.83;;;22.30;78.40;;;21.01;61.53;99602.66;10427465;28;97430;-89
2023/06/16 18:11:47;;;;;;;5.00;2.53;;;22.00;79.30;;;20.80;61.80;99596.16;10401436;28;96835;-89
2023/06/16 18:16:50;;;;;;;5.47;2.30;;;21.80;79.70;;;20.57;63.58;99599.88;10377548;28;96565;-90
2023/06/16 18:21:56;;;;;;;82.63;10.63;;;21.60;80.70;;;20.35;63.50;99602.50;10364228;28;98402;-89
2023/06/16 18:27:02;;;;;;;3.45;2.28;;;21.30;81.10;;;20.24;63.09;99615.00;10411314;28;96846;-89
2023/06/16 18:32:07;;;;;;;11.27;4.20;;;21.20;81.10;;;20.09;63.77;99616.63;10407451;27;97987;-90
2023/06/16 18:37:12;;;;;;;7.25;3.70;;;21.10;81.60;;;19.92;65.17;99625.53;10383835;28;96436;-89
2023/06/16 18:42:16;;;;;;;6.63;3.42;;;20.90;82.20;;;19.76;65.48;99639.78;10378341;28;96704;-89
2023/06/16 18:47:20;;;;;;;6.45;4.28;;;20.70;82.80;;;19.64;66.16;99629.06;10389139;28;97974;-89
2023/06/16 18:52:24;;;;;;;5.25;3.70;;;20.70;83.40;;;19.56;66.68;99639.38;10414195;28;96697;-88
2023/06/16 18:57:27;;;;;;;4.88;3.75;;;20.50;83.70;;;19.43;66.86;99645.84;10342033;28;96584;-91
2023/06/16 19:02:32;;;;;;;10.25;3.47;;;20.40;83.90;;;19.30;67.58;99652.31;10371444;28;96678;-90
2023/06/16 19:07:36;;;;;;;5.70;4.07;;;20.30;84.20;;;19.15;67.58;99660.94;10383955;28;96704;-88
2023/06/16 19:12:40;;;;;;;4.68;3.67;;;20.20;84.30;;;19.04;67.48;99661.75;10390911;28;97481;-89
2023/06/16 19:17:44;;;;;;;4.32;3.40;;;20.10;84.60;;;18.95;67.77;99664.00;10384113;28;97209;-90
2023/06/16 19:22:48;;;;;;;6.20;3.67;;;20.00;84.90;;;18.86;67.77;99673.47;10419462;28;97009;-90
2023/06/16 19:27:53;;;;;;;6.38;4.25;;;20.00;85.00;;;18.71;68.89;99673.09;10344217;28;96592;-90
2023/06/16 19:48:06;;;;;;;7.00;4.50;;;19.70;85.70;;;18.90;71.93;99698.06;10448365;27;97033;-92
2023/06/16 19:53:09;;;;;;;6.45;4.40;;;20.00;89.20;;;18.81;71.89;99696.75;10438144;27;96485;-90
2023/06/16 19:58:13;;;;;;;7.13;4.60;;;19.80;89.50;;;18.70;72.29;99695.69;10437382;27;97782;-90
2023/06/16 20:03:17;;;;;;;6.55;4.72;;;19.70;89.70;;;18.68;73.19;99697.81;10443179;27;97894;-88
2023/06/16 20:08:24;;;;;;;6.63;4.55;;;19.70;90.10;;;18.58;73.66;99703.72;10398059;28;96514;-88
2023/06/16 20:13:29;;;;;;;7.05;5.13;;;19.60;90.20;;;18.49;74.40;99701.63;10417139;27;98452;-88
2023/06/16 20:18:33;;;;;;;9.75;4.88;;;19.50;90.50;;;18.35;75.17;99701.84;10420691;27;97695;-87
2023/06/16 20:23:37;;;;;;;8.55;5.55;;;19.40;90.90;;;18.21;76.31;99697.69;10421775;27;98001;-89
2023/06/16 20:28:41;;;;;;;8.40;5.82;;;19.20;91.30;;;18.09;78.52;99691.47;10427220;27;97092;-90
2023/06/16 20:33:44;;;;;;;6.57;5.22;;;19.20;91.80;;;18.01;78.74;99689.94;10434794;27;97149;-91
2023/06/16 20:38:48;;;;;;;7.40;5.03;;;19.00;92.10;;;17.86;79.90;99684.94;10416038;27;96850;-90
2023/06/16 20:43:52;;;;;;;7.80;5.75;;;18.90;92.60;;;17.80;79.88;99693.91;10427441;27;99193;-90
2023/06/16 20:48:59;;;;;;;7.30;4.85;;;18.80;92.90;;;17.71;80.58;99697.94;10400499;27;98133;-90
2023/06/16 20:54:03;;;;;;;9.07;5.18;;;18.70;93.10;;;17.54;81.46;99689.69;10397379;28;97721;-90
2023/06/16 20:59:07;;;;;;;6.43;4.40;;;18.70;93.30;;;17.45;80.62;99700.94;10404618;27;98714;-90
2023/06/16 21:04:13;;;;;;;8.90;4.65;;;18.60;93.30;;;17.36;80.60;99703.94;10407010;27;98378;-90
2023/06/16 21:09:17;;;;;;;5.22;4.43;;;18.40;93.50;;;17.28;81.48;99714.19;10399787;27;98476;-89
2023/06/16 21:14:21;;;;;;;5.80;5.05;;;18.30;93.70;;;17.10;82.35;99696.19;10414507;27;97720;-90
2023/06/16 21:19:24;;;;;;;7.60;5.80;;;18.20;94.10;;;16.96;83.29;99702.72;10418099;27;98130;-90
2023/06/16 21:24:44;;;;;;;7.63;6.03;;;18.10;94.50;;;16.79;84.79;99697.94;10419835;27;96547;-90
2023/06/16 21:29:47;;;;;;;7.80;6.03;;;17.80;95.10;;;16.73;85.95;99704.19;10417047;27;98736;-90
2023/06/16 21:34:52;;;;;;;7.90;5.97;;;17.70;95.60;;;16.57;86.20;99696.66;10406016;27;96674;-90
2023/06/16 21:40:07;;;;;;;6.95;5.30;;;17.60;95.90;;;16.56;86.13;99695.00;10402862;28;97116;-89
2023/06/16 21:45:13;;;;;;;6.63;5.40;;;17.60;96.20;;;16.45;86.09;99698.41;10380014;27;98789;-90
2023/06/16 21:50:17;;;;;;;8.05;5.60;;;17.50;96.40;;;16.31;86.29;99686.94;10400408;27;99425;-91
2023/06/16 21:55:21;;;;;;;8.20;5.25;;;17.40;96.70;;;16.32;85.89;99696.63;10412631;27;96845;-90
2023/06/16 22:00:24;;;;;;;8.75;5.55;;;17.30;97.00;;;16.27;86.45;99691.91;10395753;27;96572;-91
2023/06/16 22:05:28;;;;;;;7.82;5.65;;;17.30;97.20;;;16.11;87.56;99687.06;10411984;28;97868;-90
2023/06/16 22:10:31;;;;;;;7.03;5.22;;;17.20;97.50;;;16.11;87.71;99686.25;10403521;28;97003;-89
2023/06/16 22:15:35;;;;;;;7.03;5.40;;;17.20;97.90;;;16.06;88.79;99684.22;10386524;27;98549;-88
2023/06/16 22:20:39;;;;;;;11.20;6.10;;;17.10;98.20;;;15.95;89.07;99682.22;10386486;27;98066;-90
2023/06/16 22:25:43;;;;;;;8.48;5.22;;;17.10;98.60;;;15.89;89.50;99683.06;10400443;27;97437;-90
2023/06/16 22:30:48;;;;;;;7.90;5.97;;;17.00;99.20;;;15.79;89.18;99676.34;10403499;27;98073;-89
2023/06/16 22:35:52;;;;;;;6.53;5.35;;;16.80;99.20;;;15.69;89.33;99684.00;10396944;27;97078;-90
2023/06/16 22:40:56;;;;;;;7.35;5.95;;;16.80;99.50;;;15.63;90.03;99687.53;10386950;27;97340;-89